sensor_id;sensor_type;location;lat;lon;timestamp;pressure;altitude;pressure_sealevel;temperature;humidity
13767;BME280;47980;48.794;9.176;2023-03-04T00:02:06;98770.63;;;3.77;79.66
13767;BME280;47980;48.794;9.176;2023-03-04T00:04:37;98771.16;;;3.69;79.49
13767;BME280;47980;48.794;9.176;2023-03-04T00:07:09;98775.91;;;3.72;78.06
13767;BME280;47980;48.794;9.176;2023-03-04T00:09:42;98770.38;;;3.69;78.51
13767;BME280;47980;48.794;9.176;2023-03-04T00:12:14;98771.69;;;3.66;78.93
13767;BME280;47980;48.794;9.176;2023-03-04T00:14:45;98769.59;;;3.53;78.27
13767;BME280;47980;48.794;9.176;2023-03-04T00:17:19;98768.81;;;3.52;79.81
13767;BME280;47980;48.794;9.176;2023-03-04T00:19:51;98766.97;;;3.58;79.12
13767;BME280;47980;48.794;9.176;2023-03-04T00:22:23;98767.50;;;3.60;78.31
13767;BME280;47980;48.794;9.176;2023-03-04T00:24:55;98771.69;;;3.66;77.94
13767;BME280;47980;48.794;9.176;2023-03-04T00:27:26;98773.53;;;3.66;77.96
13767;BME280;47980;48.794;9.176;2023-03-04T00:29:58;98778.50;;;3.62;77.31
13767;BME280;47980;48.794;9.176;2023-03-04T00:32:31;98777.22;;;3.59;78.67
13767;BME280;47980;48.794;9.176;2023-03-04T00:35:04;98774.84;;;3.58;77.95
13767;BME280;47980;48.794;9.176;2023-03-04T00:37:36;98770.91;;;3.55;77.89
13767;BME280;47980;48.794;9.176;2023-03-04T00:40:09;98775.38;;;3.60;77.32
13767;BME280;47980;48.794;9.176;2023-03-04T00:42:41;98768.81;;;3.57;77.39
13767;BME280;47980;48.794;9.176;2023-03-04T00:45:12;98765.66;;;3.60;77.30
13767;BME280;47980;48.794;9.176;2023-03-04T00:47:45;98767.25;;;3.56;78.17
13767;BME280;47980;48.794;9.176;2023-03-04T00:50:17;98773.28;;;3.42;78.92
13767;BME280;47980;48.794;9.176;2023-03-04T00:52:49;98769.31;;;3.34;78.01
13767;BME280;47980;48.794;9.176;2023-03-04T00:55:21;98768.28;;;3.35;78.58
13767;BME280;47980;48.794;9.176;2023-03-04T00:57:52;98768.00;;;3.36;78.13
13767;BME280;47980;48.794;9.176;2023-03-04T01:00:24;98767.97;;;3.26;79.48
13767;BME280;47980;48.794;9.176;2023-03-04T01:02:57;98772.97;;;3.28;78.95
13767;BME280;47980;48.794;9.176;2023-03-04T01:05:29;98768.53;;;3.23;78.80
13767;BME280;47980;48.794;9.176;2023-03-04T01:08:01;98757.75;;;3.09;78.23
13767;BME280;47980;48.794;9.176;2023-03-04T01:10:33;98767.94;;;3.06;78.58
13767;BME280;47980;48.794;9.176;2023-03-04T01:13:04;98765.03;;;2.97;79.21
13767;BME280;47980;48.794;9.176;2023-03-04T01:15:36;98765.78;;;2.82;79.85
13767;BME280;47980;48.794;9.176;2023-03-04T01:18:09;98760.03;;;2.85;80.96
13767;BME280;47980;48.794;9.176;2023-03-04T01:20:41;98758.41;;;2.74;80.98
13767;BME280;47980;48.794;9.176;2023-03-04T01:23:13;98758.69;;;2.73;81.84
13767;BME280;47980;48.794;9.176;2023-03-04T01:25:45;98754.50;;;2.82;81.10
13767;BME280;47980;48.794;9.176;2023-03-04T01:28:16;98752.41;;;2.79;81.14
13767;BME280;47980;48.794;9.176;2023-03-04T01:30:48;98756.31;;;2.71;79.71
13767;BME280;47980;48.794;9.176;2023-03-04T01:33:21;98758.13;;;2.65;81.67
13767;BME280;47980;48.794;9.176;2023-03-04T01:35:53;98753.34;;;2.52;81.81
13767;BME280;47980;48.794;9.176;2023-03-04T01:38:25;98749.72;;;2.63;82.44
13767;BME280;47980;48.794;9.176;2023-03-04T01:40:57;98754.44;;;2.61;82.05
13767;BME280;47980;48.794;9.176;2023-03-04T01:43:29;98745.31;;;2.79;80.05
13767;BME280;47980;48.794;9.176;2023-03-04T01:46:01;98750.50;;;2.59;80.96
13767;BME280;47980;48.794;9.176;2023-03-04T01:48:36;98745.00;;;2.55;81.60
13767;BME280;47980;48.794;9.176;2023-03-04T01:51:12;98747.84;;;2.54;80.79
13767;BME280;47980;48.794;9.176;2023-03-04T01:53:46;98745.78;;;2.61;81.49
13767;BME280;47980;48.794;9.176;2023-03-04T01:56:22;98746.31;;;2.63;80.93
13767;BME280;47980;48.794;9.176;2023-03-04T01:59:12;98742.44;;;2.71;80.99
13767;BME280;47980;48.794;9.176;2023-03-04T02:01:45;98748.44;;;2.71;80.32
13767;BME280;47980;48.794;9.176;2023-03-04T02:04:21;98750.28;;;2.71;80.82
13767;BME280;47980;48.794;9.176;2023-03-04T02:06:55;98746.31;;;2.63;81.45
13767;BME280;47980;48.794;9.176;2023-03-04T02:09:29;98746.34;;;2.68;80.92
13767;BME280;47980;48.794;9.176;2023-03-04T02:12:01;98743.16;;;2.56;81.81
13767;BME280;47980;48.794;9.176;2023-03-04T02:14:33;98740.28;;;2.57;81.27
13767;BME280;47980;48.794;9.176;2023-03-04T02:17:09;98741.09;;;2.58;81.12
13767;BME280;47980;48.794;9.176;2023-03-04T02:19:47;98741.03;;;2.53;81.72
13767;BME280;47980;48.794;9.176;2023-03-04T02:22:21;98740.25;;;2.52;81.61
13767;BME280;47980;48.794;9.176;2023-03-04T02:24:57;98740.75;;;2.49;81.59
13767;BME280;47980;48.794;9.176;2023-03-04T02:27:31;98732.34;;;2.42;81.69
13767;BME280;47980;48.794;9.176;2023-03-04T02:30:04;98732.84;;;2.39;81.26
13767;BME280;47980;48.794;9.176;2023-03-04T02:32:36;98740.44;;;2.35;82.22
13767;BME280;47980;48.794;9.176;2023-03-04T02:35:13;98735.19;;;2.30;81.93
13767;BME280;47980;48.794;9.176;2023-03-04T02:37:47;98734.88;;;2.22;82.94
13767;BME280;47980;48.794;9.176;2023-03-04T02:40:22;98735.84;;;2.10;83.04
13767;BME280;47980;48.794;9.176;2023-03-04T02:42:57;98735.34;;;2.08;83.73
13767;BME280;47980;48.794;9.176;2023-03-04T02:45:35;98742.13;;;2.09;83.88
13767;BME280;47980;48.794;9.176;2023-03-04T02:48:07;98736.59;;;2.01;84.07
13767;BME280;47980;48.794;9.176;2023-03-04T02:50:41;98738.09;;;1.91;84.53
13767;BME280;47980;48.794;9.176;2023-03-04T02:53:14;98743.03;;;1.88;85.40
13767;BME280;47980;48.794;9.176;2023-03-04T02:55:46;98744.59;;;1.84;85.21
13767;BME280;47980;48.794;9.176;2023-03-04T02:58:19;98745.41;;;1.89;85.51
13767;BME280;47980;48.794;9.176;2023-03-04T03:00:51;98748.53;;;1.86;85.35
13767;BME280;47980;48.794;9.176;2023-03-04T03:03:23;98745.66;;;1.88;85.39
13767;BME280;47980;48.794;9.176;2023-03-04T03:05:55;98746.72;;;1.92;84.92
13767;BME280;47980;48.794;9.176;2023-03-04T03:08:26;98746.69;;;1.87;84.97
13767;BME280;47980;48.794;9.176;2023-03-04T03:10:58;98745.72;;;1.98;84.89
13767;BME280;47980;48.794;9.176;2023-03-04T03:13:31;98743.31;;;1.86;84.67
13767;BME280;47980;48.794;9.176;2023-03-04T03:16:03;98744.09;;;1.87;85.30
13767;BME280;47980;48.794;9.176;2023-03-04T03:18:35;98744.84;;;1.82;85.18
13767;BME280;47980;48.794;9.176;2023-03-04T03:21:06;98739.78;;;1.71;86.46
13767;BME280;47980;48.794;9.176;2023-03-04T03:23:38;98743.22;;;1.76;86.31
13767;BME280;47980;48.794;9.176;2023-03-04T03:26:10;98735.88;;;1.73;86.81
13767;BME280;47980;48.794;9.176;2023-03-04T03:28:43;98742.44;;;1.76;86.69
13767;BME280;47980;48.794;9.176;2023-03-04T03:31:14;98734.53;;;1.71;86.22
13767;BME280;47980;48.794;9.176;2023-03-04T03:33:46;98734.81;;;1.69;87.06
13767;BME280;47980;48.794;9.176;2023-03-04T03:36:18;98735.13;;;1.78;86.43
13767;BME280;47980;48.794;9.176;2023-03-04T03:38:49;98734.81;;;1.69;86.00
13767;BME280;47980;48.794;9.176;2023-03-04T03:41:21;98735.28;;;1.61;87.19
13767;BME280;47980;48.794;9.176;2023-03-04T03:43:54;98740.28;;;1.67;86.85
13767;BME280;47980;48.794;9.176;2023-03-04T03:46:26;98730.13;;;1.71;86.79
13767;BME280;47980;48.794;9.176;2023-03-04T03:48:59;98737.41;;;1.69;86.48
13767;BME280;47980;48.794;9.176;2023-03-04T03:51:30;98731.09;;;1.60;86.69
13767;BME280;47980;48.794;9.176;2023-03-04T03:54:02;98727.44;;;1.61;87.38
13767;BME280;47980;48.794;9.176;2023-03-04T03:56:34;98732.09;;;1.59;87.67
13767;BME280;47980;48.794;9.176;2023-03-04T03:59:07;98736.56;;;1.58;88.16
13767;BME280;47980;48.794;9.176;2023-03-04T04:01:39;98740.50;;;1.61;88.17
13767;BME280;47980;48.794;9.176;2023-03-04T04:04:11;98732.84;;;1.49;88.40
13767;BME280;47980;48.794;9.176;2023-03-04T04:06:42;98735.75;;;1.53;88.14
13767;BME280;47980;48.794;9.176;2023-03-04T04:09:14;98737.09;;;1.60;88.14
13767;BME280;47980;48.794;9.176;2023-03-04T04:11:46;98735.75;;;1.53;87.32
13767;BME280;47980;48.794;9.176;2023-03-04T04:14:19;98742.16;;;1.40;86.65
13767;BME280;47980;48.794;9.176;2023-03-04T04:16:51;98747.84;;;1.32;87.81
13767;BME280;47980;48.794;9.176;2023-03-04T04:19:22;98743.09;;;1.29;89.09
13767;BME280;47980;48.794;9.176;2023-03-04T04:21:54;98745.97;;;1.27;87.72
13767;BME280;47980;48.794;9.176;2023-03-04T04:24:25;98745.41;;;1.25;88.89
13767;BME280;47980;48.794;9.176;2023-03-04T04:26:57;98747.09;;;1.09;89.32
13767;BME280;47980;48.794;9.176;2023-03-04T04:29:30;98752.22;;;0.99;90.66
13767;BME280;47980;48.794;9.176;2023-03-04T04:32:02;98744.13;;;1.01;89.74
13767;BME280;47980;48.794;9.176;2023-03-04T04:34:34;98740.38;;;1.18;89.05
13767;BME280;47980;48.794;9.176;2023-03-04T04:37:05;98750.50;;;1.10;88.12
13767;BME280;47980;48.794;9.176;2023-03-04T04:39:38;98750.25;;;1.11;88.52
13767;BME280;47980;48.794;9.176;2023-03-04T04:42:09;98748.31;;;1.02;89.76
13767;BME280;47980;48.794;9.176;2023-03-04T04:44:42;98754.44;;;1.12;89.61
13767;BME280;47980;48.794;9.176;2023-03-04T04:47:14;98750.44;;;1.05;90.47
13767;BME280;47980;48.794;9.176;2023-03-04T04:49:46;98756.97;;;1.02;90.13
13767;BME280;47980;48.794;9.176;2023-03-04T04:52:18;98752.06;;;1.11;89.91
13767;BME280;47980;48.794;9.176;2023-03-04T04:54:49;98762.88;;;0.98;90.80
13767;BME280;47980;48.794;9.176;2023-03-04T04:57:21;98746.81;;;1.06;88.91
13767;BME280;47980;48.794;9.176;2023-03-04T04:59:54;98754.03;;;0.99;89.28
13767;BME280;47980;48.794;9.176;2023-03-04T05:02:26;98751.44;;;0.99;91.07
13767;BME280;47980;48.794;9.176;2023-03-04T05:04:57;98756.06;;;0.91;90.72
13767;BME280;47980;48.794;9.176;2023-03-04T05:07:29;98751.34;;;0.93;90.92
13767;BME280;47980;48.794;9.176;2023-03-04T05:10:01;98750.22;;;0.84;91.78
13767;BME280;47980;48.794;9.176;2023-03-04T05:12:32;98753.94;;;0.88;91.56
13767;BME280;47980;48.794;9.176;2023-03-04T05:15:06;98763.00;;;0.81;93.11
13767;BME280;47980;48.794;9.176;2023-03-04T05:17:38;98766.88;;;0.78;91.21
13767;BME280;47980;48.794;9.176;2023-03-04T05:20:11;98767.00;;;0.66;92.14
13767;BME280;47980;48.794;9.176;2023-03-04T05:22:43;98765.03;;;0.79;91.96
13767;BME280;47980;48.794;9.176;2023-03-04T05:25:14;98769.59;;;0.66;92.02
13767;BME280;47980;48.794;9.176;2023-03-04T05:27:46;98773.44;;;0.59;93.85
13767;BME280;47980;48.794;9.176;2023-03-04T05:30:19;98773.31;;;0.70;93.11
13767;BME280;47980;48.794;9.176;2023-03-04T05:32:51;98772.38;;;0.82;91.53
13767;BME280;47980;48.794;9.176;2023-03-04T05:35:23;98767.59;;;0.74;91.44
13767;BME280;47980;48.794;9.176;2023-03-04T05:37:54;98774.56;;;0.68;91.05
13767;BME280;47980;48.794;9.176;2023-03-04T05:40:26;98772.88;;;0.57;91.25
13767;BME280;47980;48.794;9.176;2023-03-04T05:42:58;98775.47;;;0.57;92.76
13767;BME280;47980;48.794;9.176;2023-03-04T05:45:31;98782.06;;;0.59;91.56
13767;BME280;47980;48.794;9.176;2023-03-04T05:48:03;98773.59;;;0.52;92.11
13767;BME280;47980;48.794;9.176;2023-03-04T05:50:35;98779.34;;;0.54;92.00
13767;BME280;47980;48.794;9.176;2023-03-04T05:53:07;98776.56;;;0.61;92.37
13767;BME280;47980;48.794;9.176;2023-03-04T05:55:38;98771.13;;;0.23;91.14
13767;BME280;47980;48.794;9.176;2023-03-04T05:58:10;98767.91;;;0.55;92.25
13767;BME280;47980;48.794;9.176;2023-03-04T06:00:43;98774.13;;;0.54;92.87
13767;BME280;47980;48.794;9.176;2023-03-04T06:03:16;98782.53;;;0.56;93.54
13767;BME280;47980;48.794;9.176;2023-03-04T06:05:49;98778.88;;;0.57;94.25
13767;BME280;47980;48.794;9.176;2023-03-04T06:08:20;98780.69;;;0.57;94.04
13767;BME280;47980;48.794;9.176;2023-03-04T06:10:54;98781.75;;;0.56;94.34
13767;BME280;47980;48.794;9.176;2023-03-04T06:13:26;98784.03;;;0.52;93.20
13767;BME280;47980;48.794;9.176;2023-03-04T06:15:59;98788.69;;;0.50;91.92
13767;BME280;47980;48.794;9.176;2023-03-04T06:18:31;98788.66;;;0.45;92.27
13767;BME280;47980;48.794;9.176;2023-03-04T06:21:03;98793.00;;;0.39;92.90
13767;BME280;47980;48.794;9.176;2023-03-04T06:23:34;98801.03;;;0.33;93.17
13767;BME280;47980;48.794;9.176;2023-03-04T06:26:07;98801.38;;;0.41;93.10
13767;BME280;47980;48.794;9.176;2023-03-04T06:28:41;98811.41;;;0.50;93.69
13767;BME280;47980;48.794;9.176;2023-03-04T06:31:14;98812.09;;;0.62;94.24
13767;BME280;47980;48.794;9.176;2023-03-04T06:33:46;98808.94;;;0.82;92.96
13767;BME280;47980;48.794;9.176;2023-03-04T06:36:18;98808.34;;;0.75;92.23
13767;BME280;47980;48.794;9.176;2023-03-04T06:38:49;98810.38;;;0.72;93.04
13767;BME280;47980;48.794;9.176;2023-03-04T06:41:21;98816.94;;;0.75;92.33
13767;BME280;47980;48.794;9.176;2023-03-04T06:43:53;98822.66;;;0.72;93.67
13767;BME280;47980;48.794;9.176;2023-03-04T06:46:26;98822.44;;;0.74;92.87
13767;BME280;47980;48.794;9.176;2023-03-04T06:48:58;98822.00;;;0.82;91.58
13767;BME280;47980;48.794;9.176;2023-03-04T06:51:30;98834.19;;;0.76;91.82
13767;BME280;47980;48.794;9.176;2023-03-04T06:54:01;98836.56;;;0.78;93.67
13767;BME280;47980;48.794;9.176;2023-03-04T06:56:33;98837.50;;;0.88;93.08
13767;BME280;47980;48.794;9.176;2023-03-04T06:59:05;98840.81;;;0.62;94.91
13767;BME280;47980;48.794;9.176;2023-03-04T07:01:38;98837.78;;;0.70;93.25
13767;BME280;47980;48.794;9.176;2023-03-04T07:04:11;98841.66;;;0.67;93.80
13767;BME280;47980;48.794;9.176;2023-03-04T07:06:43;98833.78;;;0.84;93.53
13767;BME280;47980;48.794;9.176;2023-03-04T07:09:15;98842.75;;;0.93;93.38
13767;BME280;47980;48.794;9.176;2023-03-04T07:11:47;98846.38;;;1.09;92.20
13767;BME280;47980;48.794;9.176;2023-03-04T07:14:19;98850.97;;;1.24;91.71
13767;BME280;47980;48.794;9.176;2023-03-04T07:16:52;98847.13;;;1.32;90.32
13767;BME280;47980;48.794;9.176;2023-03-04T07:19:23;98839.66;;;1.67;89.27
13767;BME280;47980;48.794;9.176;2023-03-04T07:21:55;98856.72;;;1.75;88.99
13767;BME280;47980;48.794;9.176;2023-03-04T07:24:27;98856.72;;;2.07;85.71
13767;BME280;47980;48.794;9.176;2023-03-04T07:26:59;98866.81;;;1.93;85.88
13767;BME280;47980;48.794;9.176;2023-03-04T07:29:31;98874.41;;;1.95;86.47
13767;BME280;47980;48.794;9.176;2023-03-04T07:32:07;98865.94;;;1.83;85.37
13767;BME280;47980;48.794;9.176;2023-03-04T07:34:40;98867.53;;;2.16;86.48
13767;BME280;47980;48.794;9.176;2023-03-04T07:37:11;98876.84;;;1.75;86.31
13767;BME280;47980;48.794;9.176;2023-03-04T07:39:43;98873.66;;;1.67;88.83
13767;BME280;47980;48.794;9.176;2023-03-04T07:42:15;98869.22;;;2.00;87.04
13767;BME280;47980;48.794;9.176;2023-03-04T07:44:46;98873.88;;;2.25;85.46
13767;BME280;47980;48.794;9.176;2023-03-04T07:47:20;98877.44;;;2.14;84.44
13767;BME280;47980;48.794;9.176;2023-03-04T07:49:51;98878.59;;;2.28;84.21
13767;BME280;47980;48.794;9.176;2023-03-04T07:52:23;98884.13;;;2.00;84.61
13767;BME280;47980;48.794;9.176;2023-03-04T07:54:55;98875.78;;;2.03;85.09
13767;BME280;47980;48.794;9.176;2023-03-04T07:57:27;98885.22;;;2.04;87.23
13767;BME280;47980;48.794;9.176;2023-03-04T07:59:59;98883.13;;;2.06;85.74
13767;BME280;47980;48.794;9.176;2023-03-04T08:02:32;98884.84;;;2.22;83.59
13767;BME280;47980;48.794;9.176;2023-03-04T08:05:04;98888.72;;;2.14;85.19
13767;BME280;47980;48.794;9.176;2023-03-04T08:07:36;98898.34;;;2.09;85.52
13767;BME280;47980;48.794;9.176;2023-03-04T08:10:10;98894.81;;;1.93;85.44
13767;BME280;47980;48.794;9.176;2023-03-04T08:12:42;98888.81;;;2.30;85.14
13767;BME280;47980;48.794;9.176;2023-03-04T08:15:14;98894.38;;;2.38;83.52
13767;BME280;47980;48.794;9.176;2023-03-04T08:17:47;98887.69;;;2.21;85.27
13767;BME280;47980;48.794;9.176;2023-03-04T08:20:19;98902.84;;;2.51;84.22
13767;BME280;47980;48.794;9.176;2023-03-04T08:22:50;98898.41;;;2.51;82.42
13767;BME280;47980;48.794;9.176;2023-03-04T08:25:22;98899.59;;;2.38;84.02
13767;BME280;47980;48.794;9.176;2023-03-04T08:27:54;98900.09;;;2.30;84.73
13767;BME280;47980;48.794;9.176;2023-03-04T08:30:25;98903.06;;;2.12;85.50
13767;BME280;47980;48.794;9.176;2023-03-04T08:33:00;98905.53;;;2.24;83.83
13767;BME280;47980;48.794;9.176;2023-03-04T08:35:32;98909.09;;;2.45;83.96
13767;BME280;47980;48.794;9.176;2023-03-04T08:38:03;98900.47;;;2.49;84.15
13767;BME280;47980;48.794;9.176;2023-03-04T08:40:35;98907.53;;;2.44;83.62
13767;BME280;47980;48.794;9.176;2023-03-04T08:43:07;98906.22;;;2.46;82.61
13767;BME280;47980;48.794;9.176;2023-03-04T08:45:39;98914.28;;;2.39;83.42
13767;BME280;47980;48.794;9.176;2023-03-04T08:48:12;98917.94;;;2.38;84.05
13767;BME280;47980;48.794;9.176;2023-03-04T08:50:44;98917.31;;;2.58;83.84
13767;BME280;47980;48.794;9.176;2023-03-04T08:53:17;98915.06;;;2.77;82.61
13767;BME280;47980;48.794;9.176;2023-03-04T08:55:50;98919.88;;;2.21;83.27
13767;BME280;47980;48.794;9.176;2023-03-04T08:58:22;98908.25;;;2.39;84.98
13767;BME280;47980;48.794;9.176;2023-03-04T09:00:54;98906.84;;;2.58;83.74
13767;BME280;47980;48.794;9.176;2023-03-04T09:03:27;98908.91;;;3.04;80.85
13767;BME280;47980;48.794;9.176;2023-03-04T09:06:01;98913.34;;;2.51;82.14
13767;BME280;47980;48.794;9.176;2023-03-04T09:08:34;98918.75;;;2.76;80.86
13767;BME280;47980;48.794;9.176;2023-03-04T09:11:06;98928.94;;;2.78;81.38
13767;BME280;47980;48.794;9.176;2023-03-04T09:13:38;98928.84;;;3.05;78.51
13767;BME280;47980;48.794;9.176;2023-03-04T09:16:10;98925.91;;;2.91;79.98
13767;BME280;47980;48.794;9.176;2023-03-04T09:18:45;98913.53;;;2.86;79.08
13767;BME280;47980;48.794;9.176;2023-03-04T09:21:16;98920.44;;;3.03;79.49
13767;BME280;47980;48.794;9.176;2023-03-04T09:23:48;98922.19;;;3.34;79.34
13767;BME280;47980;48.794;9.176;2023-03-04T09:26:22;98918.25;;;3.37;78.70
13767;BME280;47980;48.794;9.176;2023-03-04T09:28:56;98925.91;;;3.59;77.66
13767;BME280;47980;48.794;9.176;2023-03-04T09:31:28;98930.09;;;2.97;78.99
13767;BME280;47980;48.794;9.176;2023-03-04T09:34:01;98928.66;;;3.17;78.83
13767;BME280;47980;48.794;9.176;2023-03-04T09:36:33;98921.09;;;3.30;77.65
13767;BME280;47980;48.794;9.176;2023-03-04T09:39:05;98921.69;;;3.48;77.65
13767;BME280;47980;48.794;9.176;2023-03-04T09:41:39;98918.91;;;3.75;76.10
13767;BME280;47980;48.794;9.176;2023-03-04T09:44:20;98921.72;;;2.95;76.70
13767;BME280;47980;48.794;9.176;2023-03-04T09:46:53;98918.44;;;3.20;77.76
13767;BME280;47980;48.794;9.176;2023-03-04T09:49:29;98917.59;;;3.82;75.70
13767;BME280;47980;48.794;9.176;2023-03-04T09:52:03;98919.69;;;3.96;73.73
13767;BME280;47980;48.794;9.176;2023-03-04T09:55:01;98912.63;;;4.06;74.37
13767;BME280;47980;48.794;9.176;2023-03-04T09:57:44;98912.09;;;3.99;72.70
13767;BME280;47980;48.794;9.176;2023-03-04T10:00:19;98917.91;;;4.57;71.40
13767;BME280;47980;48.794;9.176;2023-03-04T10:03:04;98917.56;;;4.95;68.68
13767;BME280;47980;48.794;9.176;2023-03-04T10:05:41;98916.25;;;5.02;68.77
13767;BME280;47980;48.794;9.176;2023-03-04T10:08:26;98916.53;;;4.91;65.96
13767;BME280;47980;48.794;9.176;2023-03-04T10:11:04;98920.75;;;4.81;66.49
13767;BME280;47980;48.794;9.176;2023-03-04T10:13:44;98914.09;;;5.04;66.54
13767;BME280;47980;48.794;9.176;2023-03-04T10:16:20;98910.94;;;5.07;66.33
13767;BME280;47980;48.794;9.176;2023-03-04T10:18:55;98907.06;;;4.95;66.55
13767;BME280;47980;48.794;9.176;2023-03-04T10:21:32;98907.88;;;4.65;67.20
13767;BME280;47980;48.794;9.176;2023-03-04T10:24:10;98908.44;;;4.62;68.75
13767;BME280;47980;48.794;9.176;2023-03-04T10:26:44;98906.09;;;4.45;67.82
13767;BME280;47980;48.794;9.176;2023-03-04T10:29:19;98907.28;;;5.09;67.07
13767;BME280;47980;48.794;9.176;2023-03-04T10:31:51;98909.88;;;5.14;65.64
13767;BME280;47980;48.794;9.176;2023-03-04T10:34:25;98904.66;;;5.09;65.66
13767;BME280;47980;48.794;9.176;2023-03-04T10:36:59;98906.88;;;4.55;68.98
13767;BME280;47980;48.794;9.176;2023-03-04T10:39:33;98892.13;;;4.59;67.56
13767;BME280;47980;48.794;9.176;2023-03-04T10:42:26;98898.19;;;4.65;67.45
13767;BME280;47980;48.794;9.176;2023-03-04T10:44:59;98898.22;;;4.40;66.76
13767;BME280;47980;48.794;9.176;2023-03-04T10:47:31;98894.72;;;4.90;65.96
13767;BME280;47980;48.794;9.176;2023-03-04T10:50:05;98900.00;;;5.50;64.07
13767;BME280;47980;48.794;9.176;2023-03-04T10:52:40;98889.00;;;4.63;66.32
13767;BME280;47980;48.794;9.176;2023-03-04T10:55:18;98892.91;;;4.80;66.34
13767;BME280;47980;48.794;9.176;2023-03-04T10:57:53;98892.00;;;5.11;66.13
13767;BME280;47980;48.794;9.176;2023-03-04T11:00:28;98877.81;;;5.17;63.14
13767;BME280;47980;48.794;9.176;2023-03-04T11:03:24;98875.63;;;4.33;66.98
13767;BME280;47980;48.794;9.176;2023-03-04T11:06:11;98872.44;;;4.62;67.30
13767;BME280;47980;48.794;9.176;2023-03-04T11:08:54;98876.06;;;4.81;65.80
13767;BME280;47980;48.794;9.176;2023-03-04T11:11:36;98875.19;;;5.06;65.78
13767;BME280;47980;48.794;9.176;2023-03-04T11:14:16;98878.84;;;5.21;66.12
13767;BME280;47980;48.794;9.176;2023-03-04T11:16:55;98875.19;;;5.06;64.71
13767;BME280;47980;48.794;9.176;2023-03-04T11:19:30;98869.38;;;5.15;64.81
13767;BME280;47980;48.794;9.176;2023-03-04T11:22:06;98870.91;;;5.31;64.09
13767;BME280;47980;48.794;9.176;2023-03-04T11:24:39;98862.16;;;5.46;63.87
13767;BME280;47980;48.794;9.176;2023-03-04T11:27:17;98862.97;;;5.41;62.53
13767;BME280;47980;48.794;9.176;2023-03-04T11:29:53;98864.16;;;5.59;63.36
13767;BME280;47980;48.794;9.176;2023-03-04T11:32:27;98859.59;;;5.25;62.33
13767;BME280;47980;48.794;9.176;2023-03-04T11:35:04;98862.84;;;5.12;65.00
13767;BME280;47980;48.794;9.176;2023-03-04T11:37:41;98871.53;;;5.02;65.31
13767;BME280;47980;48.794;9.176;2023-03-04T11:40:22;98858.69;;;5.50;63.24
13767;BME280;47980;48.794;9.176;2023-03-04T11:42:59;98847.28;;;5.21;63.65
13767;BME280;47980;48.794;9.176;2023-03-04T11:48:44;98858.97;;;5.44;63.33
13767;BME280;47980;48.794;9.176;2023-03-04T11:51:22;98852.75;;;5.29;62.96
13767;BME280;47980;48.794;9.176;2023-03-04T11:54:10;98849.78;;;5.46;63.12
13767;BME280;47980;48.794;9.176;2023-03-04T11:56:50;98850.31;;;5.43;62.46
13767;BME280;47980;48.794;9.176;2023-03-04T11:59:43;98846.22;;;5.66;63.53
13767;BME280;47980;48.794;9.176;2023-03-04T12:02:19;98842.56;;;5.62;63.07
13767;BME280;47980;48.794;9.176;2023-03-04T12:05:16;98841.94;;;5.36;63.60
13767;BME280;47980;48.794;9.176;2023-03-04T12:08:07;98828.44;;;4.93;63.52
13767;BME280;47980;48.794;9.176;2023-03-04T12:10:50;98831.81;;;5.09;64.30
13767;BME280;47980;48.794;9.176;2023-03-04T12:13:49;98825.53;;;5.00;63.98
13767;BME280;47980;48.794;9.176;2023-03-04T12:16:38;98821.13;;;4.90;64.53
13767;BME280;47980;48.794;9.176;2023-03-04T12:19:23;98822.00;;;4.60;65.43
13767;BME280;47980;48.794;9.176;2023-03-04T12:22:07;98808.75;;;4.91;65.06
13767;BME280;47980;48.794;9.176;2023-03-04T12:24:57;98808.75;;;4.86;66.12
13767;BME280;47980;48.794;9.176;2023-03-04T12:27:38;98807.19;;;4.85;64.88
13767;BME280;47980;48.794;9.176;2023-03-04T12:30:32;98805.13;;;4.71;65.71
13767;BME280;47980;48.794;9.176;2023-03-04T12:33:11;98805.66;;;4.68;65.08
13767;BME280;47980;48.794;9.176;2023-03-04T12:35:52;98801.63;;;4.96;64.82
13767;BME280;47980;48.794;9.176;2023-03-04T12:38:34;98791.84;;;5.07;65.16
13767;BME280;47980;48.794;9.176;2023-03-04T12:41:24;98789.75;;;4.34;67.45
13767;BME280;47980;48.794;9.176;2023-03-04T12:44:05;98787.66;;;4.36;67.64
13767;BME280;47980;48.794;9.176;2023-03-04T12:49:52;98785.78;;;4.47;67.88
13767;BME280;47980;48.794;9.176;2023-03-04T12:52:36;98783.97;;;4.32;67.63
13767;BME280;47980;48.794;9.176;2023-03-04T12:55:13;98783.13;;;4.52;67.47
13767;BME280;47980;48.794;9.176;2023-03-04T12:57:47;98771.47;;;4.83;66.33
13767;BME280;47980;48.794;9.176;2023-03-04T13:00:28;98784.69;;;4.63;65.87
13767;BME280;47980;48.794;9.176;2023-03-04T13:03:09;98773.91;;;4.59;66.55
13767;BME280;47980;48.794;9.176;2023-03-04T13:05:57;98773.34;;;4.68;66.29
13767;BME280;47980;48.794;9.176;2023-03-04T13:08:39;98776.66;;;4.94;65.72
13767;BME280;47980;48.794;9.176;2023-03-04T13:11:51;98767.59;;;4.66;65.84
13767;BME280;47980;48.794;9.176;2023-03-04T13:14:28;98769.50;;;4.45;66.96
13767;BME280;47980;48.794;9.176;2023-03-04T13:20:36;98771.75;;;4.77;66.30
13767;BME280;47980;48.794;9.176;2023-03-04T13:23:32;98772.13;;;4.45;66.68
13767;BME280;47980;48.794;9.176;2023-03-04T13:26:15;98779.88;;;4.75;65.71
13767;BME280;47980;48.794;9.176;2023-03-04T13:28:53;98768.97;;;5.13;64.32
13767;BME280;47980;48.794;9.176;2023-03-04T13:31:25;98773.97;;;5.04;64.08
13767;BME280;47980;48.794;9.176;2023-03-04T13:34:02;98765.31;;;4.44;66.03
13767;BME280;47980;48.794;9.176;2023-03-04T13:36:55;98768.44;;;4.46;64.84
13767;BME280;47980;48.794;9.176;2023-03-04T13:39:32;98760.19;;;4.78;65.70
13767;BME280;47980;48.794;9.176;2023-03-04T13:42:38;98760.97;;;4.78;65.74
13767;BME280;47980;48.794;9.176;2023-03-04T13:45:32;98763.09;;;4.71;64.79
13767;BME280;47980;48.794;9.176;2023-03-04T13:48:07;98773.31;;;4.83;64.47
13767;BME280;47980;48.794;9.176;2023-03-04T13:50:54;98764.84;;;4.16;66.61
13767;BME280;47980;48.794;9.176;2023-03-04T13:53:37;98767.06;;;4.64;65.55
13767;BME280;47980;48.794;9.176;2023-03-04T13:56:18;98769.19;;;4.56;66.36
13767;BME280;47980;48.794;9.176;2023-03-04T13:59:01;98764.63;;;4.82;64.64
13767;BME280;47980;48.794;9.176;2023-03-04T14:01:35;98766.50;;;4.77;63.63